sensor_id;sensor_type;location;lat;lon;timestamp;P1;durP1;ratioP1;P2;durP2;ratioP2
16770;SDS011;8503;52.472;13.344;2023-05-02T00:00:10;4.95;;;3.55;;
16770;SDS011;8503;52.472;13.344;2023-05-02T00:01:43;6.00;;;3.72;;
16770;SDS011;8503;52.472;13.344;2023-05-02T00:03:07;5.57;;;3.45;;
16770;SDS011;8503;52.472;13.344;2023-05-02T00:04:29;7.43;;;3.85;;
16770;SDS011;8503;52.472;13.344;2023-05-02T00:05:54;6.85;;;3.60;;
16770;SDS011;8503;52.472;13.344;2023-05-02T00:07:17;9.32;;;3.97;;
16770;SDS011;8503;52.472;13.344;2023-05-02T00:08:40;6.53;;;3.53;;
16770;SDS011;8503;52.472;13.344;2023-05-02T00:10:03;9.05;;;4.10;;
16770;SDS011;8503;52.472;13.344;2023-05-02T00:11:28;8.63;;;3.90;;
16770;SDS011;8503;52.472;13.344;2023-05-02T00:12:51;7.03;;;3.92;;
16770;SDS011;8503;52.472;13.344;2023-05-02T00:14:15;6.53;;;3.63;;
16770;SDS011;8503;52.472;13.344;2023-05-02T00:15:39;13.07;;;4.00;;
16770;SDS011;8503;52.472;13.344;2023-05-02T00:17:02;6.18;;;3.63;;
16770;SDS011;8503;52.472;13.344;2023-05-02T00:18:26;9.68;;;3.50;;
16770;SDS011;8503;52.472;13.344;2023-05-02T00:19:49;5.75;;;3.88;;
16770;SDS011;8503;52.472;13.344;2023-05-02T00:21:12;7.97;;;3.72;;
16770;SDS011;8503;52.472;13.344;2023-05-02T00:22:35;4.68;;;3.20;;
16770;SDS011;8503;52.472;13.344;2023-05-02T00:23:59;7.57;;;3.33;;
16770;SDS011;8503;52.472;13.344;2023-05-02T00:25:22;6.03;;;3.65;;
16770;SDS011;8503;52.472;13.344;2023-05-02T00:26:46;4.97;;;3.28;;
16770;SDS011;8503;52.472;13.344;2023-05-02T00:28:09;9.00;;;3.58;;
16770;SDS011;8503;52.472;13.344;2023-05-02T00:29:35;6.35;;;3.38;;
16770;SDS011;8503;52.472;13.344;2023-05-02T00:30:59;6.28;;;3.45;;
16770;SDS011;8503;52.472;13.344;2023-05-02T00:32:22;5.90;;;3.75;;
16770;SDS011;8503;52.472;13.344;2023-05-02T00:33:46;4.93;;;3.33;;
16770;SDS011;8503;52.472;13.344;2023-05-02T00:35:09;5.95;;;3.17;;
16770;SDS011;8503;52.472;13.344;2023-05-02T00:36:33;6.03;;;3.22;;
16770;SDS011;8503;52.472;13.344;2023-05-02T00:37:58;4.68;;;3.25;;
16770;SDS011;8503;52.472;13.344;2023-05-02T00:39:21;8.05;;;3.90;;
16770;SDS011;8503;52.472;13.344;2023-05-02T00:40:51;7.35;;;3.15;;
16770;SDS011;8503;52.472;13.344;2023-05-02T00:42:15;4.97;;;3.17;;
16770;SDS011;8503;52.472;13.344;2023-05-02T00:43:38;4.90;;;3.15;;
16770;SDS011;8503;52.472;13.344;2023-05-02T00:45:03;7.07;;;3.25;;
16770;SDS011;8503;52.472;13.344;2023-05-02T00:46:28;5.93;;;3.15;;
16770;SDS011;8503;52.472;13.344;2023-05-02T00:47:52;7.53;;;3.47;;
16770;SDS011;8503;52.472;13.344;2023-05-02T00:49:15;7.05;;;3.65;;
16770;SDS011;8503;52.472;13.344;2023-05-02T00:50:39;5.97;;;3.30;;
16770;SDS011;8503;52.472;13.344;2023-05-02T00:52:04;9.18;;;3.70;;
16770;SDS011;8503;52.472;13.344;2023-05-02T00:53:27;5.22;;;3.80;;
16770;SDS011;8503;52.472;13.344;2023-05-02T00:54:51;6.22;;;3.13;;
16770;SDS011;8503;52.472;13.344;2023-05-02T00:56:14;6.70;;;3.97;;
16770;SDS011;8503;52.472;13.344;2023-05-02T00:57:39;6.10;;;3.92;;
16770;SDS011;8503;52.472;13.344;2023-05-02T00:59:02;7.13;;;4.00;;
16770;SDS011;8503;52.472;13.344;2023-05-02T01:00:29;7.70;;;3.78;;
16770;SDS011;8503;52.472;13.344;2023-05-02T01:01:59;7.18;;;3.42;;
16770;SDS011;8503;52.472;13.344;2023-05-02T01:03:40;9.90;;;3.75;;
16770;SDS011;8503;52.472;13.344;2023-05-02T01:05:16;7.20;;;3.85;;
16770;SDS011;8503;52.472;13.344;2023-05-02T01:06:46;6.07;;;3.60;;
16770;SDS011;8503;52.472;13.344;2023-05-02T01:08:16;7.95;;;3.63;;
16770;SDS011;8503;52.472;13.344;2023-05-02T01:09:56;5.25;;;3.53;;
16770;SDS011;8503;52.472;13.344;2023-05-02T01:11:28;5.40;;;3.38;;
16770;SDS011;8503;52.472;13.344;2023-05-02T01:13:02;6.57;;;3.80;;
16770;SDS011;8503;52.472;13.344;2023-05-02T01:14:28;8.48;;;3.75;;
16770;SDS011;8503;52.472;13.344;2023-05-02T01:15:57;5.43;;;3.33;;
16770;SDS011;8503;52.472;13.344;2023-05-02T01:17:24;6.97;;;3.20;;
16770;SDS011;8503;52.472;13.344;2023-05-02T01:18:48;6.70;;;4.00;;
16770;SDS011;8503;52.472;13.344;2023-05-02T01:20:12;5.90;;;3.33;;
16770;SDS011;8503;52.472;13.344;2023-05-02T01:21:36;7.32;;;3.97;;
16770;SDS011;8503;52.472;13.344;2023-05-02T01:23:02;6.47;;;3.55;;
16770;SDS011;8503;52.472;13.344;2023-05-02T01:24:29;6.45;;;3.70;;
16770;SDS011;8503;52.472;13.344;2023-05-02T01:25:59;6.40;;;4.30;;
16770;SDS011;8503;52.472;13.344;2023-05-02T01:27:30;10.65;;;3.88;;
16770;SDS011;8503;52.472;13.344;2023-05-02T01:29:00;7.35;;;3.83;;
16770;SDS011;8503;52.472;13.344;2023-05-02T01:30:24;9.63;;;4.10;;
16770;SDS011;8503;52.472;13.344;2023-05-02T01:31:49;9.68;;;3.78;;
16770;SDS011;8503;52.472;13.344;2023-05-02T01:33:13;7.97;;;3.65;;
16770;SDS011;8503;52.472;13.344;2023-05-02T01:34:37;5.75;;;3.92;;
16770;SDS011;8503;52.472;13.344;2023-05-02T01:36:02;5.88;;;3.75;;
16770;SDS011;8503;52.472;13.344;2023-05-02T01:37:26;6.60;;;3.53;;
16770;SDS011;8503;52.472;13.344;2023-05-02T01:38:50;10.05;;;4.15;;
16770;SDS011;8503;52.472;13.344;2023-05-02T01:40:14;5.45;;;3.90;;
16770;SDS011;8503;52.472;13.344;2023-05-02T01:41:39;9.35;;;4.68;;
16770;SDS011;8503;52.472;13.344;2023-05-02T01:43:04;4.85;;;3.75;;
16770;SDS011;8503;52.472;13.344;2023-05-02T01:44:29;8.73;;;3.70;;
16770;SDS011;8503;52.472;13.344;2023-05-02T01:45:54;7.28;;;3.78;;
16770;SDS011;8503;52.472;13.344;2023-05-02T01:47:19;5.95;;;3.40;;
16770;SDS011;8503;52.472;13.344;2023-05-02T01:48:44;9.40;;;3.75;;
16770;SDS011;8503;52.472;13.344;2023-05-02T01:50:07;6.25;;;4.20;;
16770;SDS011;8503;52.472;13.344;2023-05-02T01:51:34;7.18;;;3.50;;
16770;SDS011;8503;52.472;13.344;2023-05-02T01:52:58;7.40;;;4.05;;
16770;SDS011;8503;52.472;13.344;2023-05-02T01:54:22;5.10;;;3.40;;
16770;SDS011;8503;52.472;13.344;2023-05-02T01:55:46;6.90;;;3.63;;
16770;SDS011;8503;52.472;13.344;2023-05-02T01:57:10;4.95;;;3.58;;
16770;SDS011;8503;52.472;13.344;2023-05-02T01:58:34;11.82;;;4.30;;
16770;SDS011;8503;52.472;13.344;2023-05-02T01:59:59;6.03;;;3.50;;
16770;SDS011;8503;52.472;13.344;2023-05-02T02:01:25;7.55;;;3.92;;
16770;SDS011;8503;52.472;13.344;2023-05-02T02:02:49;6.13;;;3.63;;
16770;SDS011;8503;52.472;13.344;2023-05-02T02:04:14;6.38;;;3.53;;
16770;SDS011;8503;52.472;13.344;2023-05-02T02:05:38;5.30;;;3.55;;
16770;SDS011;8503;52.472;13.344;2023-05-02T02:07:08;5.97;;;3.55;;
16770;SDS011;8503;52.472;13.344;2023-05-02T02:08:34;5.38;;;3.20;;
16770;SDS011;8503;52.472;13.344;2023-05-02T02:09:58;6.05;;;3.38;;
16770;SDS011;8503;52.472;13.344;2023-05-02T02:11:23;8.23;;;3.33;;
16770;SDS011;8503;52.472;13.344;2023-05-02T02:12:51;4.90;;;3.30;;
16770;SDS011;8503;52.472;13.344;2023-05-02T02:14:16;7.00;;;3.65;;
16770;SDS011;8503;52.472;13.344;2023-05-02T02:15:42;5.28;;;3.47;;
16770;SDS011;8503;52.472;13.344;2023-05-02T02:17:10;6.10;;;2.95;;
16770;SDS011;8503;52.472;13.344;2023-05-02T02:18:34;4.80;;;3.00;;
16770;SDS011;8503;52.472;13.344;2023-05-02T02:19:59;6.25;;;3.60;;
16770;SDS011;8503;52.472;13.344;2023-05-02T02:21:24;5.75;;;3.60;;
16770;SDS011;8503;52.472;13.344;2023-05-02T02:22:48;5.95;;;3.10;;
16770;SDS011;8503;52.472;13.344;2023-05-02T02:24:12;6.72;;;3.17;;
16770;SDS011;8503;52.472;13.344;2023-05-02T02:25:36;7.57;;;3.80;;
16770;SDS011;8503;52.472;13.344;2023-05-02T02:27:00;9.05;;;3.17;;
16770;SDS011;8503;52.472;13.344;2023-05-02T02:28:24;8.05;;;3.30;;
16770;SDS011;8503;52.472;13.344;2023-05-02T02:29:46;7.00;;;3.70;;
16770;SDS011;8503;52.472;13.344;2023-05-02T02:31:11;10.63;;;3.42;;
16770;SDS011;8503;52.472;13.344;2023-05-02T02:32:34;4.45;;;3.13;;
16770;SDS011;8503;52.472;13.344;2023-05-02T02:33:57;5.68;;;2.92;;
16770;SDS011;8503;52.472;13.344;2023-05-02T02:35:20;4.72;;;2.97;;
16770;SDS011;8503;52.472;13.344;2023-05-02T02:36:44;6.30;;;3.38;;
16770;SDS011;8503;52.472;13.344;2023-05-02T02:38:10;5.75;;;2.80;;
16770;SDS011;8503;52.472;13.344;2023-05-02T02:39:43;7.05;;;3.00;;
16770;SDS011;8503;52.472;13.344;2023-05-02T02:41:13;7.57;;;3.17;;
16770;SDS011;8503;52.472;13.344;2023-05-02T02:42:43;6.53;;;3.13;;
16770;SDS011;8503;52.472;13.344;2023-05-02T02:44:12;5.15;;;3.13;;
16770;SDS011;8503;52.472;13.344;2023-05-02T02:45:44;7.25;;;4.07;;
16770;SDS011;8503;52.472;13.344;2023-05-02T02:47:22;8.93;;;2.85;;
16770;SDS011;8503;52.472;13.344;2023-05-02T02:48:48;10.30;;;3.38;;
16770;SDS011;8503;52.472;13.344;2023-05-02T02:50:15;4.38;;;3.10;;
16770;SDS011;8503;52.472;13.344;2023-05-02T02:51:43;8.25;;;3.13;;
16770;SDS011;8503;52.472;13.344;2023-05-02T02:53:07;4.78;;;2.65;;
16770;SDS011;8503;52.472;13.344;2023-05-02T02:54:34;4.40;;;3.15;;
16770;SDS011;8503;52.472;13.344;2023-05-02T02:56:02;7.85;;;3.20;;
16770;SDS011;8503;52.472;13.344;2023-05-02T02:57:30;7.00;;;2.78;;
16770;SDS011;8503;52.472;13.344;2023-05-02T02:59:01;9.63;;;3.15;;
16770;SDS011;8503;52.472;13.344;2023-05-02T03:00:27;5.43;;;2.75;;
16770;SDS011;8503;52.472;13.344;2023-05-02T03:01:55;4.72;;;3.03;;
16770;SDS011;8503;52.472;13.344;2023-05-02T03:03:24;6.13;;;3.15;;
16770;SDS011;8503;52.472;13.344;2023-05-02T03:04:49;4.53;;;2.42;;
16770;SDS011;8503;52.472;13.344;2023-05-02T03:06:12;4.60;;;2.72;;
16770;SDS011;8503;52.472;13.344;2023-05-02T03:07:36;7.82;;;2.67;;
16770;SDS011;8503;52.472;13.344;2023-05-02T03:08:59;6.90;;;2.50;;
16770;SDS011;8503;52.472;13.344;2023-05-02T03:10:25;8.70;;;3.38;;
16770;SDS011;8503;52.472;13.344;2023-05-02T03:11:48;6.97;;;2.90;;
16770;SDS011;8503;52.472;13.344;2023-05-02T03:13:11;4.65;;;3.10;;
16770;SDS011;8503;52.472;13.344;2023-05-02T03:14:34;4.35;;;2.63;;
16770;SDS011;8503;52.472;13.344;2023-05-02T03:17:49;4.65;;;2.80;;
16770;SDS011;8503;52.472;13.344;2023-05-02T03:19:14;4.72;;;2.90;;
16770;SDS011;8503;52.472;13.344;2023-05-02T03:20:37;8.63;;;3.38;;
16770;SDS011;8503;52.472;13.344;2023-05-02T03:22:03;8.27;;;3.05;;
16770;SDS011;8503;52.472;13.344;2023-05-02T03:23:27;8.07;;;2.80;;
16770;SDS011;8503;52.472;13.344;2023-05-02T03:24:49;8.40;;;3.35;;
16770;SDS011;8503;52.472;13.344;2023-05-02T03:26:13;5.55;;;3.10;;
16770;SDS011;8503;52.472;13.344;2023-05-02T03:27:36;8.63;;;3.42;;
16770;SDS011;8503;52.472;13.344;2023-05-02T03:28:59;6.63;;;3.30;;
16770;SDS011;8503;52.472;13.344;2023-05-02T03:30:22;4.85;;;3.30;;
16770;SDS011;8503;52.472;13.344;2023-05-02T03:31:45;5.10;;;3.08;;
16770;SDS011;8503;52.472;13.344;2023-05-02T03:33:08;4.45;;;3.20;;
16770;SDS011;8503;52.472;13.344;2023-05-02T03:34:33;9.02;;;3.25;;
16770;SDS011;8503;52.472;13.344;2023-05-02T03:35:57;8.45;;;3.42;;
16770;SDS011;8503;52.472;13.344;2023-05-02T03:37:19;7.53;;;3.45;;
16770;SDS011;8503;52.472;13.344;2023-05-02T03:38:42;6.00;;;2.92;;
16770;SDS011;8503;52.472;13.344;2023-05-02T03:40:06;6.32;;;3.70;;
16770;SDS011;8503;52.472;13.344;2023-05-02T03:41:30;4.95;;;2.70;;
16770;SDS011;8503;52.472;13.344;2023-05-02T03:42:53;8.73;;;3.50;;
16770;SDS011;8503;52.472;13.344;2023-05-02T03:44:17;8.52;;;3.08;;
16770;SDS011;8503;52.472;13.344;2023-05-02T03:45:39;4.60;;;3.05;;
16770;SDS011;8503;52.472;13.344;2023-05-02T03:47:03;9.82;;;3.60;;
16770;SDS011;8503;52.472;13.344;2023-05-02T03:48:26;5.22;;;3.22;;
16770;SDS011;8503;52.472;13.344;2023-05-02T03:49:50;11.60;;;3.60;;
16770;SDS011;8503;52.472;13.344;2023-05-02T03:51:14;6.88;;;3.35;;
16770;SDS011;8503;52.472;13.344;2023-05-02T03:52:36;7.70;;;3.17;;
16770;SDS011;8503;52.472;13.344;2023-05-02T03:53:59;4.97;;;3.13;;
16770;SDS011;8503;52.472;13.344;2023-05-02T03:55:23;5.15;;;3.50;;
16770;SDS011;8503;52.472;13.344;2023-05-02T03:56:48;6.65;;;3.30;;
16770;SDS011;8503;52.472;13.344;2023-05-02T03:58:11;5.22;;;2.90;;
16770;SDS011;8503;52.472;13.344;2023-05-02T03:59:34;6.13;;;2.92;;
16770;SDS011;8503;52.472;13.344;2023-05-02T04:01:01;7.10;;;3.00;;
16770;SDS011;8503;52.472;13.344;2023-05-02T04:02:25;5.10;;;2.88;;
16770;SDS011;8503;52.472;13.344;2023-05-02T04:03:48;4.15;;;2.88;;
16770;SDS011;8503;52.472;13.344;2023-05-02T04:05:15;4.05;;;2.60;;
16770;SDS011;8503;52.472;13.344;2023-05-02T04:06:38;6.22;;;2.85;;
16770;SDS011;8503;52.472;13.344;2023-05-02T04:08:01;5.75;;;3.22;;
16770;SDS011;8503;52.472;13.344;2023-05-02T04:09:24;5.85;;;3.20;;
16770;SDS011;8503;52.472;13.344;2023-05-02T04:10:49;5.20;;;3.38;;
16770;SDS011;8503;52.472;13.344;2023-05-02T04:12:14;5.32;;;2.72;;
16770;SDS011;8503;52.472;13.344;2023-05-02T04:13:37;5.95;;;2.92;;
16770;SDS011;8503;52.472;13.344;2023-05-02T04:15:01;6.25;;;2.50;;
16770;SDS011;8503;52.472;13.344;2023-05-02T04:16:24;5.15;;;2.72;;
16770;SDS011;8503;52.472;13.344;2023-05-02T04:17:49;7.80;;;2.95;;
16770;SDS011;8503;52.472;13.344;2023-05-02T04:19:11;5.75;;;2.78;;
16770;SDS011;8503;52.472;13.344;2023-05-02T04:20:36;6.72;;;3.28;;
16770;SDS011;8503;52.472;13.344;2023-05-02T04:21:59;6.47;;;3.08;;
16770;SDS011;8503;52.472;13.344;2023-05-02T04:23:24;3.03;;;2.40;;
16770;SDS011;8503;52.472;13.344;2023-05-02T04:24:48;8.63;;;2.42;;
16770;SDS011;8503;52.472;13.344;2023-05-02T04:26:11;6.18;;;2.58;;
16770;SDS011;8503;52.472;13.344;2023-05-02T04:27:34;5.80;;;2.88;;
16770;SDS011;8503;52.472;13.344;2023-05-02T04:29:01;7.93;;;2.47;;
16770;SDS011;8503;52.472;13.344;2023-05-02T04:30:24;6.28;;;3.00;;
16770;SDS011;8503;52.472;13.344;2023-05-02T04:31:48;9.98;;;3.60;;
16770;SDS011;8503;52.472;13.344;2023-05-02T04:33:12;5.78;;;2.67;;
16770;SDS011;8503;52.472;13.344;2023-05-02T04:34:36;5.55;;;2.55;;
16770;SDS011;8503;52.472;13.344;2023-05-02T04:36:00;4.75;;;2.45;;
16770;SDS011;8503;52.472;13.344;2023-05-02T04:37:24;5.00;;;2.60;;
16770;SDS011;8503;52.472;13.344;2023-05-02T04:38:46;4.97;;;2.55;;
16770;SDS011;8503;52.472;13.344;2023-05-02T04:40:10;4.93;;;3.03;;
16770;SDS011;8503;52.472;13.344;2023-05-02T04:41:34;6.95;;;2.70;;
16770;SDS011;8503;52.472;13.344;2023-05-02T04:42:57;3.40;;;2.20;;
16770;SDS011;8503;52.472;13.344;2023-05-02T04:44:21;4.25;;;2.35;;
16770;SDS011;8503;52.472;13.344;2023-05-02T04:45:44;3.65;;;2.50;;
16770;SDS011;8503;52.472;13.344;2023-05-02T04:47:08;6.28;;;2.25;;
16770;SDS011;8503;52.472;13.344;2023-05-02T04:48:31;6.68;;;2.90;;
16770;SDS011;8503;52.472;13.344;2023-05-02T04:49:54;5.15;;;2.35;;
16770;SDS011;8503;52.472;13.344;2023-05-02T04:51:18;5.60;;;2.35;;
16770;SDS011;8503;52.472;13.344;2023-05-02T04:52:42;3.80;;;2.30;;
16770;SDS011;8503;52.472;13.344;2023-05-02T04:54:05;7.25;;;2.50;;
16770;SDS011;8503;52.472;13.344;2023-05-02T04:55:29;6.78;;;2.38;;
16770;SDS011;8503;52.472;13.344;2023-05-02T04:56:52;4.15;;;2.40;;
16770;SDS011;8503;52.472;13.344;2023-05-02T04:58:16;5.75;;;2.50;;
16770;SDS011;8503;52.472;13.344;2023-05-02T04:59:39;3.97;;;2.05;;
16770;SDS011;8503;52.472;13.344;2023-05-02T05:01:02;11.07;;;2.47;;
16770;SDS011;8503;52.472;13.344;2023-05-02T05:02:26;9.50;;;3.05;;
16770;SDS011;8503;52.472;13.344;2023-05-02T05:03:50;7.80;;;2.75;;
16770;SDS011;8503;52.472;13.344;2023-05-02T05:05:13;8.30;;;2.50;;
16770;SDS011;8503;52.472;13.344;2023-05-02T05:06:38;7.00;;;2.53;;
16770;SDS011;8503;52.472;13.344;2023-05-02T05:08:01;8.15;;;3.03;;
16770;SDS011;8503;52.472;13.344;2023-05-02T05:09:24;6.32;;;2.42;;
16770;SDS011;8503;52.472;13.344;2023-05-02T05:10:48;8.60;;;2.88;;
16770;SDS011;8503;52.472;13.344;2023-05-02T05:12:12;8.48;;;2.20;;
16770;SDS011;8503;52.472;13.344;2023-05-02T05:13:35;5.80;;;2.67;;
16770;SDS011;8503;52.472;13.344;2023-05-02T05:14:58;4.38;;;2.60;;
16770;SDS011;8503;52.472;13.344;2023-05-02T05:16:21;5.32;;;3.08;;
16770;SDS011;8503;52.472;13.344;2023-05-02T05:17:45;4.00;;;2.22;;
16770;SDS011;8503;52.472;13.344;2023-05-02T05:19:09;7.63;;;2.70;;
16770;SDS011;8503;52.472;13.344;2023-05-02T05:20:33;5.40;;;2.45;;
16770;SDS011;8503;52.472;13.344;2023-05-02T05:21:57;3.08;;;2.30;;
16770;SDS011;8503;52.472;13.344;2023-05-02T05:23:21;8.82;;;3.08;;
16770;SDS011;8503;52.472;13.344;2023-05-02T05:24:49;10.57;;;3.10;;
16770;SDS011;8503;52.472;13.344;2023-05-02T05:26:13;5.10;;;2.63;;
16770;SDS011;8503;52.472;13.344;2023-05-02T05:27:37;4.65;;;2.42;;
16770;SDS011;8503;52.472;13.344;2023-05-02T05:29:00;4.70;;;2.50;;
16770;SDS011;8503;52.472;13.344;2023-05-02T05:30:23;4.85;;;2.40;;
16770;SDS011;8503;52.472;13.344;2023-05-02T05:31:47;6.63;;;2.80;;
16770;SDS011;8503;52.472;13.344;2023-05-02T05:33:09;6.68;;;3.05;;
16770;SDS011;8503;52.472;13.344;2023-05-02T05:34:33;4.20;;;2.55;;
16770;SDS011;8503;52.472;13.344;2023-05-02T05:36:02;4.72;;;2.60;;
16770;SDS011;8503;52.472;13.344;2023-05-02T05:37:28;5.00;;;2.83;;
16770;SDS011;8503;52.472;13.344;2023-05-02T05:38:52;5.40;;;3.05;;
16770;SDS011;8503;52.472;13.344;2023-05-02T05:40:15;6.00;;;2.55;;
16770;SDS011;8503;52.472;13.344;2023-05-02T05:41:38;5.95;;;2.92;;
16770;SDS011;8503;52.472;13.344;2023-05-02T05:43:02;4.18;;;2.60;;
16770;SDS011;8503;52.472;13.344;2023-05-02T05:44:25;5.75;;;2.53;;
16770;SDS011;8503;52.472;13.344;2023-05-02T05:45:50;5.80;;;2.83;;
16770;SDS011;8503;52.472;13.344;2023-05-02T05:47:17;5.10;;;2.70;;
16770;SDS011;8503;52.472;13.344;2023-05-02T05:48:42;5.28;;;2.50;;
16770;SDS011;8503;52.472;13.344;2023-05-02T05:50:06;4.47;;;2.47;;
16770;SDS011;8503;52.472;13.344;2023-05-02T05:51:30;6.47;;;2.67;;
16770;SDS011;8503;52.472;13.344;2023-05-02T05:52:55;6.82;;;3.10;;
16770;SDS011;8503;52.472;13.344;2023-05-02T05:54:18;7.10;;;2.38;;
16770;SDS011;8503;52.472;13.344;2023-05-02T05:55:41;3.47;;;2.60;;
16770;SDS011;8503;52.472;13.344;2023-05-02T05:57:04;7.07;;;3.15;;
16770;SDS011;8503;52.472;13.344;2023-05-02T05:58:36;5.78;;;2.53;;
16770;SDS011;8503;52.472;13.344;2023-05-02T06:00:03;5.15;;;2.85;;
16770;SDS011;8503;52.472;13.344;2023-05-02T06:01:27;7.82;;;3.17;;
16770;SDS011;8503;52.472;13.344;2023-05-02T06:02:51;8.85;;;2.92;;
16770;SDS011;8503;52.472;13.344;2023-05-02T06:04:15;6.07;;;3.15;;
16770;SDS011;8503;52.472;13.344;2023-05-02T06:05:38;5.32;;;3.22;;
16770;SDS011;8503;52.472;13.344;2023-05-02T06:07:02;6.28;;;3.63;;
16770;SDS011;8503;52.472;13.344;2023-05-02T06:08:26;5.72;;;3.10;;
16770;SDS011;8503;52.472;13.344;2023-05-02T06:09:50;7.32;;;3.03;;
16770;SDS011;8503;52.472;13.344;2023-05-02T06:11:12;10.68;;;3.33;;
16770;SDS011;8503;52.472;13.344;2023-05-02T06:12:36;9.40;;;3.58;;
16770;SDS011;8503;52.472;13.344;2023-05-02T06:13:59;7.18;;;3.55;;
16770;SDS011;8503;52.472;13.344;2023-05-02T06:15:23;6.13;;;3.55;;
16770;SDS011;8503;52.472;13.344;2023-05-02T06:16:46;7.22;;;3.83;;
16770;SDS011;8503;52.472;13.344;2023-05-02T06:18:10;7.05;;;3.45;;
16770;SDS011;8503;52.472;13.344;2023-05-02T06:19:33;9.15;;;4.05;;
16770;SDS011;8503;52.472;13.344;2023-05-02T06:21:01;5.22;;;3.85;;
16770;SDS011;8503;52.472;13.344;2023-05-02T06:22:25;9.13;;;3.72;;
16770;SDS011;8503;52.472;13.344;2023-05-02T06:23:50;8.15;;;3.58;;
16770;SDS011;8503;52.472;13.344;2023-05-02T06:25:14;6.57;;;3.33;;
16770;SDS011;8503;52.472;13.344;2023-05-02T06:26:38;7.50;;;3.65;;
16770;SDS011;8503;52.472;13.344;2023-05-02T06:28:01;11.02;;;4.13;;
16770;SDS011;8503;52.472;13.344;2023-05-02T06:29:27;8.60;;;4.40;;
16770;SDS011;8503;52.472;13.344;2023-05-02T06:30:55;9.88;;;4.80;;
16770;SDS011;8503;52.472;13.344;2023-05-02T06:32:19;6.63;;;4.93;;
16770;SDS011;8503;52.472;13.344;2023-05-02T06:33:43;8.85;;;5.47;;
16770;SDS011;8503;52.472;13.344;2023-05-02T06:35:07;6.85;;;4.45;;
16770;SDS011;8503;52.472;13.344;2023-05-02T06:36:31;10.60;;;5.45;;
16770;SDS011;8503;52.472;13.344;2023-05-02T06:37:55;15.80;;;5.03;;
16770;SDS011;8503;52.472;13.344;2023-05-02T06:39:20;7.07;;;4.80;;
16770;SDS011;8503;52.472;13.344;2023-05-02T06:40:43;8.50;;;4.97;;
16770;SDS011;8503;52.472;13.344;2023-05-02T06:42:07;7.65;;;5.60;;
16770;SDS011;8503;52.472;13.344;2023-05-02T06:43:34;10.45;;;6.15;;
16770;SDS011;8503;52.472;13.344;2023-05-02T06:44:58;11.15;;;5.82;;
16770;SDS011;8503;52.472;13.344;2023-05-02T06:46:21;9.13;;;5.78;;
16770;SDS011;8503;52.472;13.344;2023-05-02T06:47:44;8.45;;;5.60;;
16770;SDS011;8503;52.472;13.344;2023-05-02T06:49:08;11.43;;;5.97;;
16770;SDS011;8503;52.472;13.344;2023-05-02T06:50:31;14.27;;;6.35;;
16770;SDS011;8503;52.472;13.344;2023-05-02T06:51:55;8.57;;;6.10;;
16770;SDS011;8503;52.472;13.344;2023-05-02T06:53:19;11.82;;;6.20;;
16770;SDS011;8503;52.472;13.344;2023-05-02T06:54:43;11.93;;;6.55;;
16770;SDS011;8503;52.472;13.344;2023-05-02T06:56:07;11.23;;;6.70;;
16770;SDS011;8503;52.472;13.344;2023-05-02T06:57:31;7.85;;;5.72;;
16770;SDS011;8503;52.472;13.344;2023-05-02T06:58:53;7.45;;;5.55;;
16770;SDS011;8503;52.472;13.344;2023-05-02T07:00:17;9.20;;;5.90;;
16770;SDS011;8503;52.472;13.344;2023-05-02T07:01:42;8.07;;;5.57;;
16770;SDS011;8503;52.472;13.344;2023-05-02T07:03:05;6.38;;;5.32;;
16770;SDS011;8503;52.472;13.344;2023-05-02T07:04:31;9.48;;;4.75;;
16770;SDS011;8503;52.472;13.344;2023-05-02T07:05:55;9.43;;;5.20;;
16770;SDS011;8503;52.472;13.344;2023-05-02T07:07:18;8.50;;;5.28;;
16770;SDS011;8503;52.472;13.344;2023-05-02T07:08:42;7.85;;;5.13;;
16770;SDS011;8503;52.472;13.344;2023-05-02T07:10:08;11.25;;;5.45;;
16770;SDS011;8503;52.472;13.344;2023-05-02T07:11:32;9.88;;;5.20;;
16770;SDS011;8503;52.472;13.344;2023-05-02T07:12:55;9.57;;;5.13;;
16770;SDS011;8503;52.472;13.344;2023-05-02T07:14:19;8.70;;;5.82;;
16770;SDS011;8503;52.472;13.344;2023-05-02T07:15:42;9.30;;;5.30;;
16770;SDS011;8503;52.472;13.344;2023-05-02T07:17:07;13.65;;;4.75;;
16770;SDS011;8503;52.472;13.344;2023-05-02T07:18:31;7.30;;;4.93;;
16770;SDS011;8503;52.472;13.344;2023-05-02T07:19:54;7.45;;;4.97;;
16770;SDS011;8503;52.472;13.344;2023-05-02T07:21:18;7.32;;;4.65;;
16770;SDS011;8503;52.472;13.344;2023-05-02T07:22:42;9.43;;;4.97;;
16770;SDS011;8503;52.472;13.344;2023-05-02T07:24:05;7.90;;;4.90;;
16770;SDS011;8503;52.472;13.344;2023-05-02T07:25:30;8.40;;;5.35;;
16770;SDS011;8503;52.472;13.344;2023-05-02T07:26:54;7.82;;;4.82;;
16770;SDS011;8503;52.472;13.344;2023-05-02T07:28:17;5.63;;;4.55;;
16770;SDS011;8503;52.472;13.344;2023-05-02T07:29:40;7.57;;;4.50;;
16770;SDS011;8503;52.472;13.344;2023-05-02T07:31:04;9.00;;;4.75;;
16770;SDS011;8503;52.472;13.344;2023-05-02T07:32:27;7.03;;;4.80;;
16770;SDS011;8503;52.472;13.344;2023-05-02T07:33:51;9.35;;;4.97;;
16770;SDS011;8503;52.472;13.344;2023-05-02T07:35:15;7.32;;;4.88;;
16770;SDS011;8503;52.472;13.344;2023-05-02T07:36:38;6.85;;;4.82;;
16770;SDS011;8503;52.472;13.344;2023-05-02T07:38:02;7.45;;;4.43;;
16770;SDS011;8503;52.472;13.344;2023-05-02T07:39:25;10.50;;;4.53;;
16770;SDS011;8503;52.472;13.344;2023-05-02T07:40:50;8.52;;;4.63;;
16770;SDS011;8503;52.472;13.344;2023-05-02T07:42:14;10.75;;;5.78;;
16770;SDS011;8503;52.472;13.344;2023-05-02T07:43:37;10.65;;;5.03;;
16770;SDS011;8503;52.472;13.344;2023-05-02T07:45:02;7.40;;;4.18;;
16770;SDS011;8503;52.472;13.344;2023-05-02T07:46:25;7.20;;;4.82;;
16770;SDS011;8503;52.472;13.344;2023-05-02T07:47:49;7.45;;;3.88;;
16770;SDS011;8503;52.472;13.344;2023-05-02T07:49:12;9.85;;;4.43;;
16770;SDS011;8503;52.472;13.344;2023-05-02T07:50:38;5.63;;;4.10;;
16770;SDS011;8503;52.472;13.344;2023-05-02T07:52:02;6.65;;;4.45;;
16770;SDS011;8503;52.472;13.344;2023-05-02T07:53:26;9.70;;;4.72;;
16770;SDS011;8503;52.472;13.344;2023-05-02T07:54:49;7.38;;;4.28;;
16770;SDS011;8503;52.472;13.344;2023-05-02T07:56:15;7.53;;;4.15;;
16770;SDS011;8503;52.472;13.344;2023-05-02T07:57:39;7.47;;;4.28;;
16770;SDS011;8503;52.472;13.344;2023-05-02T07:59:02;6.47;;;4.30;;
16770;SDS011;8503;52.472;13.344;2023-05-02T08:00:26;7.43;;;4.45;;
16770;SDS011;8503;52.472;13.344;2023-05-02T08:01:50;9.27;;;4.25;;
16770;SDS011;8503;52.472;13.344;2023-05-02T08:03:14;7.13;;;4.22;;
16770;SDS011;8503;52.472;13.344;2023-05-02T08:04:37;6.43;;;4.13;;
16770;SDS011;8503;52.472;13.344;2023-05-02T08:06:01;9.60;;;4.88;;
16770;SDS011;8503;52.472;13.344;2023-05-02T08:07:25;8.35;;;4.57;;
16770;SDS011;8503;52.472;13.344;2023-05-02T08:08:49;9.13;;;4.63;;
16770;SDS011;8503;52.472;13.344;2023-05-02T08:10:12;9.68;;;4.78;;
16770;SDS011;8503;52.472;13.344;2023-05-02T08:11:37;7.38;;;4.63;;
16770;SDS011;8503;52.472;13.344;2023-05-02T08:13:01;11.38;;;5.30;;
16770;SDS011;8503;52.472;13.344;2023-05-02T08:14:24;9.45;;;4.78;;
16770;SDS011;8503;52.472;13.344;2023-05-02T08:15:48;7.22;;;4.28;;
16770;SDS011;8503;52.472;13.344;2023-05-02T08:17:11;8.05;;;4.72;;
16770;SDS011;8503;52.472;13.344;2023-05-02T08:18:35;9.02;;;4.72;;
16770;SDS011;8503;52.472;13.344;2023-05-02T08:19:58;8.50;;;5.13;;
16770;SDS011;8503;52.472;13.344;2023-05-02T08:21:22;6.63;;;4.25;;
16770;SDS011;8503;52.472;13.344;2023-05-02T08:22:47;12.95;;;5.82;;
16770;SDS011;8503;52.472;13.344;2023-05-02T08:24:11;8.88;;;4.78;;
16770;SDS011;8503;52.472;13.344;2023-05-02T08:25:35;8.43;;;4.88;;
16770;SDS011;8503;52.472;13.344;2023-05-02T08:26:59;10.52;;;5.68;;
16770;SDS011;8503;52.472;13.344;2023-05-02T08:28:24;8.63;;;4.90;;
16770;SDS011;8503;52.472;13.344;2023-05-02T08:29:47;7.53;;;4.32;;